Station Historical Data
Daily Summary for May 26, 2012 Units:  Metric    English   Both
« Previous Day
Next Day »
Daily Weekly Monthly Yearly Custom
  High: Low: Average:
Temperature: 32.3 °C 17.5 °C 25.3 °C
Dew Point: 22.9 °C 16.6 °C 19.3 °C
Humidity: 94% 43% 72%
Wind Speed: 11.3km/h 0km/h 1.8km/h
Wind Gust: 16.1km/h - -
Wind- - SSW
Pressure: 1019.5 hPa 1015.8 hPa -
Precipitation: 0 mm    
Historical Graphs
 
 
Tabular Data for May 26, 2012
Time Temperature Dew Point Pressure Wind Wind Speed Wind Gust Humidity Rainfall Rate (Hourly) Conditions
00:00 23.2 °C 18.5 °C 1016.5 hPa Calm   1.6 km/h 75% 0 mm
00:05 22.9 °C 18.5 °C 1016.5 hPa Calm   1.6 km/h 76% 0 mm
00:10 22.8 °C 18.4 °C 1016.5 hPa SE 1.6 km/h 1.6 km/h 76% 0 mm
00:11 22.8 °C 18.4 °C 1016.5 hPa SE 1.6 km/h 1.6 km/h 76% 0 mm
00:12 22.8 °C 18.6 °C 1016.5 hPa SE 1.6 km/h 1.6 km/h 77% 0 mm
00:17 22.7 °C 18.5 °C 1016.8 hPa Calm     77% 0 mm
00:22 22.3 °C 18.1 °C 1016.8 hPa Calm     77% 0 mm
00:27 21.8 °C 18.1 °C 1016.8 hPa Calm     79% 0 mm
00:32 21.4 °C 17.8 °C 1016.8 hPa Calm     80% 0 mm
00:37 21.1 °C 18.1 °C 1016.8 hPa Calm     83% 0 mm
00:42 20.9 °C 17.9 °C 1016.8 hPa Calm     83% 0 mm
00:47 21.3 °C 18.4 °C 1016.8 hPa SE 1.6 km/h 1.6 km/h 84% 0 mm
00:52 21.7 °C 18.5 °C 1016.8 hPa Calm   1.6 km/h 82% 0 mm
00:57 21.8 °C 18.4 °C 1016.8 hPa Calm   1.6 km/h 81% 0 mm
01:02 21.8 °C 18.4 °C 1016.8 hPa Calm     81% 0 mm
01:07 21.5 °C 18.3 °C 1016.8 hPa Calm     82% 0 mm
01:12 21.2 °C 18.2 °C 1016.8 hPa Calm     83% 0 mm
01:17 21 °C 18.2 °C 1016.8 hPa Calm     84% 0 mm
01:22 20.9 °C 18.1 °C 1016.8 hPa Calm     84% 0 mm
01:27 20.8 °C 18.3 °C 1016.8 hPa Calm   1.6 km/h 86% 0 mm
01:32 20.8 °C 18.3 °C 1016.8 hPa Calm   1.6 km/h 86% 0 mm
01:37 20.7 °C 18.1 °C 1016.8 hPa Calm   1.6 km/h 85% 0 mm
01:42 20.4 °C 18 °C 1016.8 hPa Calm     86% 0 mm
01:47 20.2 °C 18 °C 1016.8 hPa Calm     87% 0 mm
01:52 20.1 °C 18 °C 1016.8 hPa Calm     88% 0 mm
01:57 20.1 °C 18.1 °C 1016.8 hPa Calm     88% 0 mm
02:02 20.2 °C 18.1 °C 1016.8 hPa Calm     88% 0 mm
02:07 20.2 °C 18.1 °C 1016.8 hPa Calm     88% 0 mm
02:12 20.2 °C 18.3 °C 1016.8 hPa Calm   1.6 km/h 89% 0 mm
02:17 20.3 °C 18.3 °C 1016.8 hPa Calm     88% 0 mm
02:22 20.2 °C 18 °C 1016.8 hPa Calm     87% 0 mm
02:28 20.1 °C 18 °C 1016.8 hPa SE 1.6 km/h 1.6 km/h 88% 0 mm
02:33 19.9 °C 18.1 °C 1016.8 hPa ESE 1.6 km/h 1.6 km/h 89% 0 mm
02:38 19.9 °C 18.1 °C 1016.8 hPa ESE 1.6 km/h 1.6 km/h 89% 0 mm
02:43 20 °C 18.1 °C 1016.8 hPa Calm     89% 0 mm
02:48 19.8 °C 17.9 °C 1016.8 hPa Calm     89% 0 mm
02:53 19.6 °C 17.9 °C 1016.8 hPa ESE 1.6 km/h 1.6 km/h 90% 0 mm
02:58 19.4 °C 17.8 °C 1016.8 hPa Calm     90% 0 mm
03:03 19.1 °C 17.4 °C 1016.8 hPa ESE 1.6 km/h 1.6 km/h 90% 0 mm
03:08 18.9 °C 17.4 °C 1016.8 hPa Calm   3.2 km/h 91% 0 mm
03:13 18.7 °C 17.2 °C 1016.8 hPa Calm     91% 0 mm
03:18 18.6 °C 17.2 °C 1017.2 hPa Calm     92% 0 mm
03:23 18.7 °C 17.5 °C 1017.2 hPa East 1.6 km/h 1.6 km/h 93% 0 mm
03:28 18.8 °C 17.6 °C 1017.2 hPa Calm   1.6 km/h 93% 0 mm
03:33 18.8 °C 17.7 °C 1017.2 hPa Calm     93% 0 mm
03:38 18.7 °C 17.4 °C 1017.2 hPa Calm     92% 0 mm
03:43 18.6 °C 17.4 °C 1017.2 hPa Calm     93% 0 mm
03:48 18.6 °C 17.4 °C 1017.2 hPa Calm     93% 0 mm
03:53 18.8 °C 17.6 °C 1017.2 hPa Calm   1.6 km/h 93% 0 mm
03:58 19 °C 17.8 °C 1017.2 hPa Calm   1.6 km/h 93% 0 mm
04:03 19.2 °C 18 °C 1017.2 hPa Calm   1.6 km/h 93% 0 mm
04:08 19.2 °C 17.9 °C 1017.2 hPa Calm   1.6 km/h 92% 0 mm
04:13 19 °C 17.7 °C 1017.2 hPa Calm   1.6 km/h 92% 0 mm
04:18 18.8 °C 17.7 °C 1017.5 hPa ENE 1.6 km/h 3.2 km/h 93% 0 mm
04:23 18.8 °C 17.4 °C 1017.5 hPa Calm     92% 0 mm
04:28 18.7 °C 17.5 °C 1017.5 hPa Calm     93% 0 mm
04:33 18.6 °C 17.4 °C 1017.5 hPa Calm     93% 0 mm
04:38 18.6 °C 17.4 °C 1017.5 hPa Calm     93% 0 mm
04:43 18.5 °C 17.3 °C 1017.8 hPa Calm     93% 0 mm
04:48 18.4 °C 17.3 °C 1017.8 hPa Calm   1.6 km/h 93% 0 mm
04:53 18.3 °C 17.2 °C 1017.8 hPa ENE 1.6 km/h 1.6 km/h 93% 0 mm
04:58 18.4 °C 17.2 °C 1017.8 hPa ENE 1.6 km/h 3.2 km/h 93% 0 mm
05:03 18.7 °C 17.5 °C 1017.8 hPa ENE 1.6 km/h 3.2 km/h 93% 0 mm
05:08 18.7 °C 17.5 °C 1017.8 hPa Calm   1.6 km/h 93% 0 mm
05:13 18.4 °C 17.3 °C 1018.2 hPa Calm     93% 0 mm
05:18 18.2 °C 17.1 °C 1018.2 hPa Calm     93% 0 mm
05:24 18.1 °C 16.9 °C 1018.2 hPa Calm     93% 0 mm
05:29 18 °C 16.8 °C 1018.2 hPa Calm     93% 0 mm
05:34 17.9 °C 16.7 °C 1018.2 hPa Calm     93% 0 mm
05:38 17.8 °C 16.6 °C 1018.2 hPa Calm     93% 0 mm
05:43 17.9 °C 16.9 °C 1018.5 hPa Calm     94% 0 mm
05:49 18 °C 17 °C 1018.5 hPa Calm     94% 0 mm
05:54 18 °C 17 °C 1018.5 hPa Calm     94% 0 mm
05:59 17.9 °C 16.9 °C 1018.5 hPa Calm     94% 0 mm
06:04 17.8 °C 16.8 °C 1018.5 hPa Calm     94% 0 mm
06:09 17.9 °C 16.9 °C 1018.5 hPa Calm     94% 0 mm
06:14 17.9 °C 16.9 °C 1018.5 hPa Calm     94% 0 mm
06:19 17.9 °C 16.9 °C 1018.5 hPa Calm     94% 0 mm
06:24 17.8 °C 16.8 °C 1018.5 hPa ENE 1.6 km/h 1.6 km/h 94% 0 mm
06:29 17.6 °C 16.7 °C 1018.5 hPa ENE 1.6 km/h 1.6 km/h 94% 0 mm
06:34 17.5 °C 16.6 °C 1018.5 hPa Calm     94% 0 mm
06:39 17.5 °C 16.6 °C 1018.5 hPa Calm     94% 0 mm
06:44 17.7 °C 16.7 °C 1018.8 hPa Calm     94% 0 mm
06:49 17.7 °C 16.7 °C 1018.8 hPa Calm   1.6 km/h 94% 0 mm
06:54 17.7 °C 16.7 °C 1018.8 hPa Calm     94% 0 mm
06:59 18 °C 17 °C 1018.8 hPa Calm   1.6 km/h 94% 0 mm
07:05 18.2 °C 17.2 °C 1018.8 hPa Calm     94% 0 mm
07:10 18.2 °C 17.2 °C 1018.8 hPa Calm     94% 0 mm
07:15 18.3 °C 17.3 °C 1018.8 hPa Calm     94% 0 mm
07:20 18.5 °C 17.5 °C 1018.8 hPa Calm     94% 0 mm
07:25 19 °C 18 °C 1018.8 hPa Calm     94% 0 mm
07:30 19.4 °C 18.4 °C 1018.8 hPa Calm     94% 0 mm
07:35 19.8 °C 18.8 °C 1018.8 hPa Calm     94% 0 mm
07:40 20.3 °C 19.2 °C 1018.8 hPa Calm   1.6 km/h 93% 0 mm
07:45 20.8 °C 19.7 °C 1018.8 hPa Calm   1.6 km/h 93% 0 mm
07:50 21.1 °C 19.7 °C 1018.8 hPa Calm   3.2 km/h 92% 0 mm
07:55 21.3 °C 19.8 °C 1018.8 hPa East 3.2 km/h 4.8 km/h 91% 0 mm
08:00 21.4 °C 19.7 °C 1018.8 hPa East 3.2 km/h 4.8 km/h 90% 0 mm
08:05 21.8 °C 20.2 °C 1018.8 hPa Calm   1.6 km/h 91% 0 mm
08:10 22.2 °C 20.3 °C 1018.8 hPa ESE 1.6 km/h 3.2 km/h 89% 0 mm
08:15 22.4 °C 20.5 °C 1018.8 hPa Calm   3.2 km/h 89% 0 mm
08:20 22.7 °C 20.6 °C 1018.8 hPa Calm   1.6 km/h 88% 0 mm
08:25 22.9 °C 20.7 °C 1019.2 hPa Calm   3.2 km/h 87% 0 mm
08:31 23.2 °C 20.5 °C 1019.2 hPa East 3.2 km/h 3.2 km/h 85% 0 mm
08:36 23.2 °C 20.7 °C 1019.2 hPa Calm   3.2 km/h 86% 0 mm
08:41 23.4 °C 20.7 °C 1019.2 hPa ESE 1.6 km/h 3.2 km/h 85% 0 mm
08:46 23.6 °C 20.7 °C 1019.2 hPa ESE 1.6 km/h 1.6 km/h 84% 0 mm
08:51 23.9 °C 20.8 °C 1019.2 hPa ESE 3.2 km/h 3.2 km/h 83% 0 mm
08:56 24.1 °C 21 °C 1019.2 hPa ESE 1.6 km/h 3.2 km/h 83% 0 mm
09:01 24.4 °C 21.1 °C 1019.5 hPa Calm   3.2 km/h 82% 0 mm
09:06 24.8 °C 21.1 °C 1019.5 hPa SE 1.6 km/h 3.2 km/h 80% 0 mm
09:11 25.1 °C 21.2 °C 1019.5 hPa SSE 3.2 km/h 3.2 km/h 79% 0 mm
09:16 25.4 °C 21.3 °C 1019.5 hPa ESE 4.8 km/h 4.8 km/h 78% 0 mm
09:21 25.3 °C 21 °C 1019.5 hPa SE 3.2 km/h 8 km/h 77% 0 mm
09:24 25.4 °C 21.1 °C 1019.5 hPa SE 1.6 km/h 6.4 km/h 77% 0 mm
09:29 25.7 °C 20.4 °C 1019.5 hPa SSE 6.4 km/h 8 km/h 73% 0 mm
09:34 25.9 °C 20.7 °C 1019.5 hPa East 4.8 km/h 4.8 km/h 73% 0 mm
09:39 26 °C 21.2 °C 1019.5 hPa SE 4.8 km/h 6.4 km/h 75% 0 mm
09:44 26.1 °C 20.4 °C 1019.5 hPa SE 4.8 km/h 6.4 km/h 71% 0 mm
09:49 26.3 °C 21.3 °C 1019.5 hPa SE 8 km/h 8 km/h 74% 0 mm
09:54 26.4 °C 20.2 °C 1019.5 hPa SE 4.8 km/h 8 km/h 69% 0 mm
09:59 26.6 °C 21.2 °C 1019.5 hPa SE 4.8 km/h 9.7 km/h 72% 0 mm
10:04 26.7 °C 21.1 °C 1019.5 hPa SSW 4.8 km/h 6.4 km/h 71% 0 mm
10:09 27 °C 21.3 °C 1019.5 hPa SSE 6.4 km/h 6.4 km/h 71% 0 mm
10:14 27.2 °C 21.3 °C 1019.5 hPa SSE 8 km/h 8 km/h 70% 0 mm
10:19 27.4 °C 20.8 °C 1019.2 hPa WSW 3.2 km/h 4.8 km/h 67% 0 mm
10:24 27.6 °C 21.7 °C 1019.2 hPa SW 6.4 km/h 6.4 km/h 70% 0 mm
10:29 27.6 °C 20.9 °C 1019.5 hPa SSW 6.4 km/h 8 km/h 67% 0 mm
10:34 27.6 °C 20.9 °C 1019.2 hPa SSW 4.8 km/h 6.4 km/h 67% 0 mm
10:39 27.8 °C 21.1 °C 1019.2 hPa SW 3.2 km/h 6.4 km/h 67% 0 mm
10:44 27.9 °C 21 °C 1019.2 hPa West 4.8 km/h 8 km/h 66% 0 mm
10:49 27.8 °C 21.6 °C 1019.2 hPa WSW 4.8 km/h 8 km/h 69% 0 mm
10:55 27.9 °C 21.7 °C 1019.5 hPa WSW 3.2 km/h 4.8 km/h 69% 0 mm
11:00 28.3 °C 21.1 °C 1019.5 hPa SW 3.2 km/h 4.8 km/h 65% 0 mm
11:05 28.5 °C 21.3 °C 1019.5 hPa Calm   3.2 km/h 65% 0 mm
11:10 28.7 °C 21 °C 1019.5 hPa West 1.6 km/h 6.4 km/h 63% 0 mm
11:15 28.6 °C 20.9 °C 1019.5 hPa WNW 3.2 km/h 9.7 km/h 63% 0 mm
11:20 28.6 °C 20.6 °C 1019.5 hPa NW 3.2 km/h 6.4 km/h 62% 0 mm
11:25 28.6 °C 20.6 °C 1019.5 hPa WNW 6.4 km/h 6.4 km/h 62% 0 mm
11:30 28.6 °C 20.9 °C 1019.5 hPa WNW 4.8 km/h 8 km/h 63% 0 mm
11:35 28.6 °C 20.9 °C 1019.5 hPa WSW 3.2 km/h 6.4 km/h 63% 0 mm
11:40 28.9 °C 20.6 °C 1019.5 hPa SW 4.8 km/h 8 km/h 61% 0 mm
11:45 28.9 °C 20.7 °C 1019.5 hPa SW 4.8 km/h 9.7 km/h 61% 0 mm
11:46 29 °C 20.7 °C 1019.5 hPa West 1.6 km/h 9.7 km/h 61% 0 mm
11:51 29.1 °C 20.5 °C 1019.5 hPa West 3.2 km/h 6.4 km/h 60% 0 mm
11:56 29 °C 20.2 °C 1019.5 hPa WNW 6.4 km/h 11.3 km/h 59% 0 mm
12:01 28.9 °C 20.9 °C 1019.5 hPa West 1.6 km/h 9.7 km/h 62% 0 mm
12:06 29.1 °C 20.2 °C 1019.5 hPa NW 8 km/h 11.3 km/h 59% 0 mm
12:11 29.1 °C 19.9 °C 1019.5 hPa NW 8 km/h 12.9 km/h 58% 0 mm
12:16 29 °C 19.9 °C 1019.5 hPa NW 8 km/h 11.3 km/h 58% 0 mm
12:21 29.1 °C 20.8 °C 1019.5 hPa Calm   6.4 km/h 61% 0 mm
12:26 29.3 °C 19.9 °C 1019.5 hPa SSW 6.4 km/h 11.3 km/h 57% 0 mm
12:31 29.4 °C 20.3 °C 1019.5 hPa West 8 km/h 16.1 km/h 58% 0 mm
12:36 29.5 °C 19.2 °C 1019.2 hPa West 3.2 km/h 6.4 km/h 54% 0 mm
12:42 29.7 °C 19.9 °C 1019.2 hPa WSW 6.4 km/h 9.7 km/h 56% 0 mm
12:47 29.7 °C 20.2 °C 1019.2 hPa NNW 4.8 km/h 9.7 km/h 57% 0 mm
12:52 29.8 °C 20.1 °C 1019.5 hPa NNW 11.3 km/h 11.3 km/h 56% 0 mm
12:57 29.5 °C 19.5 °C 1019.5 hPa WNW 8 km/h 14.5 km/h 55% 0 mm
13:02 29.6 °C 20.4 °C 1019.5 hPa WSW 4.8 km/h 11.3 km/h 58% 0 mm
13:07 29.8 °C 20.6 °C 1019.2 hPa WNW 1.6 km/h 11.3 km/h 58% 0 mm
13:12 29.8 °C 18.9 °C 1019.2 hPa West 1.6 km/h 8 km/h 52% 0 mm
13:17 30.1 °C 19.7 °C 1019.5 hPa WNW 6.4 km/h 9.7 km/h 54% 0 mm
13:22 30.1 °C 19.4 °C 1019.5 hPa Calm   6.4 km/h 53% 0 mm
13:27 30.4 °C 18.8 °C 1019.2 hPa SW 6.4 km/h 8 km/h 50% 0 mm
13:32 30.4 °C 18.8 °C 1019.2 hPa Calm   6.4 km/h 50% 0 mm
13:37 30.8 °C 19.5 °C 1019.2 hPa SE 1.6 km/h 3.2 km/h 51% 0 mm
13:42 31.1 °C 20.1 °C 1019.2 hPa SW 4.8 km/h 8 km/h 52% 0 mm
13:47 31 °C 18.7 °C 1019.2 hPa SW 3.2 km/h 9.7 km/h 48% 0 mm
13:52 31.1 °C 19.4 °C 1019.2 hPa Calm   1.6 km/h 50% 0 mm
13:57 31.3 °C 19.6 °C 1019.2 hPa SW 4.8 km/h 8 km/h 50% 0 mm
14:03 31.2 °C 19.3 °C 1018.8 hPa East 3.2 km/h 4.8 km/h 49% 0 mm
14:08 30.8 °C 19.8 °C 1018.8 hPa ENE 1.6 km/h 12.9 km/h 52% 0 mm
14:13 30.9 °C 20.6 °C 1018.8 hPa SW 6.4 km/h 6.4 km/h 54% 0 mm
14:18 30.5 °C 20.4 °C 1018.8 hPa NW 3.2 km/h 4.8 km/h 55% 0 mm
14:23 30.3 °C 19.7 °C 1018.8 hPa North 1.6 km/h 4.8 km/h 53% 0 mm
14:28 30.5 °C 18.9 °C 1018.8 hPa WSW 4.8 km/h 9.7 km/h 50% 0 mm
14:33 30.6 °C 18.7 °C 1018.5 hPa WSW 9.7 km/h 11.3 km/h 49% 0 mm
14:38 30.6 °C 17.9 °C 1018.5 hPa West 1.6 km/h 6.4 km/h 47% 0 mm
14:43 30.7 °C 18.4 °C 1018.5 hPa NW 6.4 km/h 8 km/h 48% 0 mm
14:48 30.6 °C 17.6 °C 1018.2 hPa NNW 4.8 km/h 6.4 km/h 46% 0 mm
14:53 30.8 °C 20.2 °C 1018.2 hPa Calm   4.8 km/h 53% 0 mm
14:58 31.4 °C 20.4 °C 1018.2 hPa WSW 6.4 km/h 8 km/h 52% 0 mm
15:03 31.3 °C 19 °C 1017.8 hPa NNE 1.6 km/h 9.7 km/h 48% 0 mm
15:08 31.3 °C 19.3 °C 1017.8 hPa North 4.8 km/h 8 km/h 49% 0 mm
15:13 31.1 °C 19.5 °C 1017.8 hPa Calm   4.8 km/h 50% 0 mm
15:18 31.3 °C 19.3 °C 1017.8 hPa SE 8 km/h 9.7 km/h 49% 0 mm
15:23 31.3 °C 19.3 °C 1017.8 hPa SSW 1.6 km/h 8 km/h 49% 0 mm
15:28 31.5 °C 19.5 °C 1017.8 hPa SW 1.6 km/h 4.8 km/h 49% 0 mm
15:34 31.7 °C 20.1 °C 1017.5 hPa WSW 3.2 km/h 6.4 km/h 50% 0 mm
15:39 31.4 °C 18.8 °C 1017.5 hPa WSW 6.4 km/h 12.9 km/h 47% 0 mm
15:44 31.4 °C 20.1 °C 1017.5 hPa WNW 6.4 km/h 6.4 km/h 51% 0 mm
15:49 31.3 °C 19.7 °C 1017.5 hPa NNE 3.2 km/h 6.4 km/h 50% 0 mm
15:54 31.4 °C 19.8 °C 1017.2 hPa SE 1.6 km/h 1.6 km/h 50% 0 mm
15:59 31.9 °C 20.8 °C 1017.2 hPa SW 3.2 km/h 4.8 km/h 52% 0 mm
16:04 32 °C 19.6 °C 1017.2 hPa SW 6.4 km/h 12.9 km/h 48% 0 mm
16:09 31.6 °C 19.6 °C 1017.2 hPa West 3.2 km/h 9.7 km/h 49% 0 mm
16:14 31.6 °C 18.6 °C 1016.8 hPa SSW 3.2 km/h 11.3 km/h 46% 0 mm
16:19 31.7 °C 19 °C 1016.8 hPa WSW 4.8 km/h 6.4 km/h 47% 0 mm
16:24 31.7 °C 19.3 °C 1016.8 hPa West 4.8 km/h 6.4 km/h 48% 0 mm
16:29 31.6 °C 19.2 °C 1016.8 hPa West 1.6 km/h 11.3 km/h 48% 0 mm
16:34 31.4 °C 19.1 °C 1016.8 hPa WNW 3.2 km/h 8 km/h 48% 0 mm
16:39 31.4 °C 19.1 °C 1016.8 hPa SSW 1.6 km/h 6.4 km/h 48% 0 mm
16:44 31.6 °C 18.2 °C 1016.8 hPa SW 6.4 km/h 6.4 km/h 45% 0 mm
16:49 31.7 °C 19.1 °C 1016.8 hPa WSW 1.6 km/h 6.4 km/h 47% 0 mm
16:54 31.9 °C 19.2 °C 1016.8 hPa West 8 km/h 12.9 km/h 47% 0 mm
16:59 31.8 °C 20.1 °C 1016.8 hPa West 1.6 km/h 3.2 km/h 50% 0 mm
17:04 31.8 °C 19.5 °C 1016.5 hPa SSE 1.6 km/h 4.8 km/h 48% 0 mm
17:09 31.9 °C 18.9 °C 1016.5 hPa WSW 3.2 km/h 8 km/h 46% 0 mm
17:14 31.8 °C 18.1 °C 1016.5 hPa South 1.6 km/h 6.4 km/h 44% 0 mm
17:19 32.2 °C 18.1 °C 1016.5 hPa ESE 3.2 km/h 3.2 km/h 43% 0 mm
17:24 32.3 °C 18.1 °C 1016.5 hPa SSE 3.2 km/h 6.4 km/h 43% 0 mm
17:29 32.2 °C 18.4 °C 1016.5 hPa SSE 4.8 km/h 4.8 km/h 44% 0 mm
17:34 32.3 °C 18.5 °C 1016.5 hPa SW 6.4 km/h 6.4 km/h 44% 0 mm
17:39 31.9 °C 18.2 °C 1016.5 hPa WSW 1.6 km/h 6.4 km/h 44% 0 mm
17:44 31.9 °C 18.1 °C 1016.5 hPa Calm   3.2 km/h 44% 0 mm
17:49 32.1 °C 19.3 °C 1016.1 hPa SW 4.8 km/h 6.4 km/h 47% 0 mm
17:54 31.9 °C 18.8 °C 1016.1 hPa SSW 3.2 km/h 6.4 km/h 46% 0 mm
17:59 31.8 °C 18.8 °C 1016.1 hPa West 1.6 km/h 4.8 km/h 46% 0 mm
18:04 31.9 °C 19.2 °C 1016.1 hPa WSW 1.6 km/h 3.2 km/h 47% 0 mm
18:09 32.1 °C 19.7 °C 1016.1 hPa SW 6.4 km/h 6.4 km/h 48% 0 mm
18:14 31.9 °C 19.2 °C 1016.1 hPa SW 4.8 km/h 6.4 km/h 47% 0 mm
18:19 31.9 °C 19.2 °C 1016.1 hPa SSW 3.2 km/h 4.8 km/h 47% 0 mm
18:24 31.7 °C 18.3 °C 1016.1 hPa SSW 3.2 km/h 4.8 km/h 45% 0 mm
18:29 31.8 °C 19.1 °C 1016.1 hPa SW 3.2 km/h 3.2 km/h 47% 0 mm
18:34 31.8 °C 19.4 °C 1016.1 hPa West 3.2 km/h 3.2 km/h 48% 0 mm
18:39 31.7 °C 19.7 °C 1016.1 hPa SW 3.2 km/h 3.2 km/h 49% 0 mm
18:45 31.6 °C 18.6 °C 1016.1 hPa SW 1.6 km/h 4.8 km/h 46% 0 mm
18:50 31.5 °C 19.2 °C 1016.1 hPa SSW 1.6 km/h 3.2 km/h 48% 0 mm
18:55 31.5 °C 19.5 °C 1016.1 hPa SW 3.2 km/h 3.2 km/h 49% 0 mm
19:00 31.4 °C 19.4 °C 1016.1 hPa WSW 1.6 km/h 3.2 km/h 49% 0 mm
19:05 31.3 °C 19 °C 1016.1 hPa Calm   3.2 km/h 48% 0 mm
19:10 31.4 °C 19.8 °C 1015.8 hPa SW 1.6 km/h 1.6 km/h 50% 0 mm
19:15 31.3 °C 19.6 °C 1016.1 hPa SW 1.6 km/h 1.6 km/h 50% 0 mm
19:20 31.3 °C 20 °C 1015.8 hPa WSW 1.6 km/h 1.6 km/h 51% 0 mm
19:25 31.4 °C 21.6 °C 1016.1 hPa Calm   1.6 km/h 56% 0 mm
19:30 31.3 °C 20.9 °C 1015.8 hPa Calm   1.6 km/h 54% 0 mm
19:35 31.1 °C 21.3 °C 1015.8 hPa WSW 1.6 km/h 1.6 km/h 56% 0 mm
19:40 30.9 °C 21.7 °C 1016.1 hPa Calm     58% 0 mm
19:45 30.8 °C 20.4 °C 1015.8 hPa Calm     54% 0 mm
19:50 30.9 °C 21.9 °C 1016.1 hPa Calm     59% 0 mm
19:56 30.8 °C 21.6 °C 1015.8 hPa Calm     58% 0 mm
20:01 30.7 °C 21.4 °C 1015.8 hPa Calm     58% 0 mm
20:06 30.6 °C 21.1 °C 1015.8 hPa Calm     57% 0 mm
20:11 30.7 °C 22.1 °C 1015.8 hPa Calm     60% 0 mm
20:16 30.7 °C 22 °C 1015.8 hPa Calm     60% 0 mm
20:21 30.1 °C 22.1 °C 1015.8 hPa Calm     62% 0 mm
20:26 29.4 °C 21.4 °C 1015.8 hPa Calm   1.6 km/h 62% 0 mm
20:31 29.2 °C 21.2 °C 1016.1 hPa Calm     62% 0 mm
20:36 28.9 °C 22.9 °C 1015.8 hPa Calm     70% 0 mm
20:41 28.2 °C 21.2 °C 1015.8 hPa Calm     66% 0 mm
20:46 27.6 °C 21.9 °C 1015.8 hPa Calm     71% 0 mm
20:51 27.1 °C 20.9 °C 1015.8 hPa Calm     69% 0 mm
20:56 26.5 °C 20.8 °C 1016.1 hPa Calm     71% 0 mm
21:01 26.1 °C 20.9 °C 1016.1 hPa Calm     73% 0 mm
21:06 26.1 °C 20.4 °C 1016.1 hPa Calm     71% 0 mm
21:11 26 °C 20.8 °C 1015.8 hPa Calm     73% 0 mm
21:16 25.6 °C 20.6 °C 1015.8 hPa Calm     74% 0 mm
21:21 25.1 °C 20.6 °C 1015.8 hPa Calm     76% 0 mm
21:26 24.9 °C 20.2 °C 1015.8 hPa Calm     75% 0 mm
21:32 24.8 °C 20.1 °C 1015.8 hPa Calm     75% 0 mm
21:37 24.8 °C 20.1 °C 1015.8 hPa Calm     75% 0 mm
21:42 24.6 °C 20.9 °C 1015.8 hPa Calm     80% 0 mm
21:47 24.2 °C 20.9 °C 1015.8 hPa Calm     82% 0 mm
21:52 24.1 °C 20.8 °C 1016.1 hPa Calm   1.6 km/h 82% 0 mm
21:57 24.1 °C 20.4 °C 1016.1 hPa Calm     80% 0 mm
22:02 23.9 °C 20.5 °C 1016.1 hPa Calm     81% 0 mm
22:07 23.7 °C 20.4 °C 1016.1 hPa Calm     82% 0 mm
22:12 23.4 °C 20.6 °C 1016.1 hPa Calm     84% 0 mm
22:17 23.3 °C 20.6 °C 1016.1 hPa Calm     85% 0 mm
22:22 23.2 °C 20.4 °C 1016.1 hPa Calm     84% 0 mm
22:27 23.1 °C 20.2 °C 1016.1 hPa Calm     84% 0 mm
22:32 22.9 °C 20.1 °C 1016.1 hPa Calm     84% 0 mm
22:37 22.8 °C 19.8 °C 1016.5 hPa Calm     83% 0 mm
22:42 22.8 °C 19.7 °C 1016.1 hPa Calm     83% 0 mm
22:47 22.7 °C 19.6 °C 1016.5 hPa Calm     83% 0 mm
22:52 22.5 °C 19.5 °C 1016.5 hPa Calm     83% 0 mm
22:57 22.3 °C 19.1 °C 1016.5 hPa Calm     82% 0 mm
23:03 22.3 °C 19.1 °C 1016.5 hPa Calm     82% 0 mm
23:08 22.3 °C 18.9 °C 1016.5 hPa Calm     81% 0 mm
23:13 22.2 °C 18.8 °C 1016.5 hPa Calm     81% 0 mm
23:18 22 °C 18.8 °C 1016.5 hPa Calm     82% 0 mm
23:23 21.8 °C 18.8 °C 1016.5 hPa Calm     83% 0 mm
23:28 21.5 °C 18.7 °C 1016.5 hPa Calm     84% 0 mm
23:33 21.2 °C 18.6 °C 1016.5 hPa Calm     85% 0 mm
23:38 21.4 °C 19.1 °C 1016.5 hPa Calm     87% 0 mm
23:43 21.6 °C 19.5 °C 1016.5 hPa Calm     88% 0 mm
23:48 21.6 °C 19.6 °C 1016.5 hPa Calm     88% 0 mm
23:53 21.5 °C 19.6 °C 1016.5 hPa Calm     89% 0 mm
23:58 21.4 °C 19.5 °C 1016.5 hPa Calm     89% 0 mm
Compliments of Weather Underground